createdAt,value
2022-12-12T00:01:41.559Z,96781.25
2022-12-12T00:04:09.093Z,96786.38
2022-12-12T00:06:36.538Z,96781.91
2022-12-12T00:09:05.466Z,96776.13
2022-12-12T00:11:32.969Z,96782.63
2022-12-12T00:14:00.476Z,96773.22
2022-12-12T00:16:28.269Z,96775.81
2022-12-12T00:18:55.851Z,96768.22
2022-12-12T00:21:28.194Z,96774.88
2022-12-12T00:23:57.191Z,96774.72
2022-12-12T00:26:31.387Z,96783.03
2022-12-12T00:29:00.868Z,96778.53
2022-12-12T00:31:29.541Z,96783.72
2022-12-12T00:33:57.388Z,96782.41
2022-12-12T00:36:29.330Z,96784.06
2022-12-12T00:38:58.393Z,96788.06
2022-12-12T00:41:26.414Z,96791.38
2022-12-12T00:43:54.060Z,96793.81
2022-12-12T00:46:24.989Z,96788.50
2022-12-12T00:48:58.355Z,96787.38
2022-12-12T00:51:28.228Z,96791.75
2022-12-12T00:53:58.152Z,96786.63
2022-12-12T00:56:27.602Z,96787.66
2022-12-12T00:58:55.226Z,96785.66
2022-12-12T01:01:27.761Z,96782.81
2022-12-12T01:03:55.596Z,96781.22
2022-12-12T01:06:24.117Z,96781.06
2022-12-12T01:08:53.165Z,96777.53
2022-12-12T01:11:22.187Z,96776.03
2022-12-12T01:13:53.487Z,96782.16
2022-12-12T01:16:22.221Z,96782.13
2022-12-12T01:18:50.816Z,96780.78
2022-12-12T01:21:20.405Z,96771.63
2022-12-12T01:23:48.155Z,96778.97
2022-12-12T01:26:19.642Z,96771.78
2022-12-12T01:28:48.005Z,96776.81
2022-12-12T01:31:16.409Z,96781.28
2022-12-12T01:33:46.317Z,96774.00
2022-12-12T01:36:20.986Z,96774.75
2022-12-12T01:38:51.700Z,96771.72
2022-12-12T01:41:19.576Z,96765.31
2022-12-12T01:43:47.738Z,96769.84
2022-12-12T01:46:43.276Z,96761.22
2022-12-12T01:49:23.506Z,96763.28
2022-12-12T01:51:58.996Z,96761.91
2022-12-12T01:54:39.538Z,96762.19
2022-12-12T01:57:13.467Z,96756.47
2022-12-12T01:59:42.318Z,96764.53
2022-12-12T02:02:10.889Z,96762.63
2022-12-12T02:04:39.772Z,96751.78
2022-12-12T02:07:07.080Z,96753.66
2022-12-12T02:09:37.023Z,96751.47
2022-12-12T02:12:04.912Z,96759.03
2022-12-12T02:14:37.651Z,96755.56
2022-12-12T02:17:34.718Z,96758.03
2022-12-12T02:20:26.681Z,96752.25
2022-12-12T02:23:17.887Z,96754.81
2022-12-12T02:26:22.188Z,96755.97
2022-12-12T02:28:58.228Z,96750.91
2022-12-12T02:31:59.410Z,96750.66
2022-12-12T02:34:38.413Z,96745.13
2022-12-12T02:37:29.158Z,96753.31
2022-12-12T02:40:04.034Z,96745.94
2022-12-12T02:42:53.366Z,96749.19
2022-12-12T02:45:37.854Z,96746.69
2022-12-12T02:48:37.106Z,96746.44
2022-12-12T02:51:09.984Z,96755.22
2022-12-12T02:53:37.802Z,96752.84
2022-12-12T02:56:45.151Z,96760.72
2022-12-12T02:59:34.529Z,96755.59
2022-12-12T03:02:16.535Z,96747.78
2022-12-12T03:05:26.987Z,96743.69
2022-12-12T03:08:33.637Z,96751.06
2022-12-12T03:11:09.288Z,96746.44
2022-12-12T03:13:59.785Z,96752.38
2022-12-12T03:17:04.602Z,96752.38
2022-12-12T03:20:11.981Z,96756.50
2022-12-12T03:22:48.988Z,96754.00
2022-12-12T03:25:24.095Z,96749.13
2022-12-12T03:28:03.998Z,96763.41
2022-12-12T03:30:40.725Z,96764.03
2022-12-12T03:33:46.691Z,96761.78
2022-12-12T03:36:27.367Z,96754.19
2022-12-12T03:39:06.179Z,96751.97
2022-12-12T03:41:42.435Z,96754.50
2022-12-12T03:44:22.574Z,96755.00
2022-12-12T03:46:57.453Z,96752.75
2022-12-12T03:49:36.046Z,96751.44
2022-12-12T03:52:13.857Z,96747.78
2022-12-12T03:54:53.884Z,96755.34
2022-12-12T03:57:36.595Z,96753.78
2022-12-12T04:00:13.940Z,96754.25
2022-12-12T04:03:15.834Z,96751.13
2022-12-12T04:06:29.648Z,96752.84
2022-12-12T04:09:21.576Z,96755.03
2022-12-12T04:12:38.094Z,96746.25
2022-12-12T04:15:26.568Z,96753.16
2022-12-12T04:18:35.157Z,96752.41
2022-12-12T04:21:57.610Z,96745.66
2022-12-12T04:24:50.256Z,96741.50
2022-12-12T04:27:43.212Z,96752.03
2022-12-12T04:30:14.847Z,96751.06
2022-12-12T04:32:55.092Z,96748.56
2022-12-12T04:35:33.740Z,96753.31
2022-12-12T04:38:09.735Z,96755.97
2022-12-12T04:40:50.679Z,96754.59
2022-12-12T04:43:34.076Z,96751.81
2022-12-12T04:46:26.245Z,96743.31
2022-12-12T04:49:02.939Z,96746.56
2022-12-12T04:51:34.896Z,96753.31
2022-12-12T04:54:22.414Z,96746.78
2022-12-12T04:56:58.792Z,96745.66
2022-12-12T04:59:26.795Z,96749.56
2022-12-12T05:01:59.440Z,96751.88
2022-12-12T05:04:51.663Z,96751.19
2022-12-12T05:07:40.122Z,96750.38
2022-12-12T05:10:16.241Z,96753.47
2022-12-12T05:12:49.859Z,96747.56
2022-12-12T05:15:20.741Z,96742.53
2022-12-12T05:18:05.544Z,96739.06
2022-12-12T05:20:32.887Z,96752.59
2022-12-12T05:23:00.490Z,96751.97
2022-12-12T05:25:27.871Z,96750.66
2022-12-12T05:27:55.556Z,96745.44
2022-12-12T05:30:24.152Z,96748.16
2022-12-12T05:32:52.233Z,96746.22
2022-12-12T05:35:19.610Z,96741.94
2022-12-12T05:37:51.634Z,96753.38
2022-12-12T05:40:21.186Z,96748.50
2022-12-12T05:42:48.701Z,96753.50
2022-12-12T05:45:16.225Z,96750.09
2022-12-12T05:47:43.789Z,96760.31
2022-12-12T05:50:11.307Z,96759.31
2022-12-12T05:52:38.950Z,96763.53
2022-12-12T05:55:06.905Z,96760.34
2022-12-12T05:57:34.444Z,96763.81
2022-12-12T06:00:01.700Z,96761.56
2022-12-12T06:02:29.307Z,96767.09
2022-12-12T06:04:56.564Z,96769.66
2022-12-12T06:07:24.785Z,96770.41
2022-12-12T06:09:52.011Z,96770.91
2022-12-12T06:12:19.534Z,96777.19
2022-12-12T06:14:46.687Z,96771.22
2022-12-12T06:17:14.202Z,96774.63
2022-12-12T06:19:41.538Z,96777.88
2022-12-12T06:22:09.047Z,96780.56
2022-12-12T06:24:36.253Z,96784.34
2022-12-12T06:27:03.884Z,96786.59
2022-12-12T06:29:31.100Z,96783.13
2022-12-12T06:31:58.614Z,96783.84
2022-12-12T06:34:25.932Z,96788.81
2022-12-12T06:36:53.460Z,96795.41
2022-12-12T06:39:20.659Z,96802.53
2022-12-12T06:41:48.321Z,96799.31
2022-12-12T06:44:15.785Z,96789.44
2022-12-12T06:46:43.317Z,96784.72
2022-12-12T06:49:10.591Z,96806.69
2022-12-12T06:51:44.408Z,96792.16
2022-12-12T06:54:17.959Z,96799.50
2022-12-12T06:56:48.467Z,96794.94
2022-12-12T06:59:17.296Z,96803.13
2022-12-12T07:01:45.501Z,96806.53
2022-12-12T07:04:14.822Z,96805.88
2022-12-12T07:06:43.108Z,96804.22
2022-12-12T07:09:10.500Z,96812.47
2022-12-12T07:11:41.612Z,96819.13
2022-12-12T07:14:10.171Z,96812.00
2022-12-12T07:16:38.041Z,96811.00
2022-12-12T07:19:05.665Z,96815.47
2022-12-12T07:21:33.272Z,96821.13
2022-12-12T07:24:00.535Z,96821.09
2022-12-12T07:26:28.130Z,96824.53
2022-12-12T07:28:55.478Z,96818.72
2022-12-12T07:31:26.542Z,96818.38
2022-12-12T07:33:57.108Z,96816.78
2022-12-12T07:36:24.809Z,96820.19
2022-12-12T07:38:52.200Z,96830.78
2022-12-12T07:41:21.004Z,96817.28
2022-12-12T07:43:51.106Z,96820.28
2022-12-12T07:46:24.969Z,96821.50
2022-12-12T07:48:54.242Z,96820.31
2022-12-12T07:51:22.924Z,96813.50
2022-12-12T07:53:50.239Z,96813.06
2022-12-12T07:56:20.430Z,96814.16
2022-12-12T07:58:48.384Z,96822.16
2022-12-12T08:01:24.040Z,96817.63
2022-12-12T08:03:53.479Z,96826.28
2022-12-12T08:06:23.569Z,96831.53
2022-12-12T08:08:53.422Z,96825.69
2022-12-12T08:11:24.198Z,96833.25
2022-12-12T08:13:53.142Z,96837.22
2022-12-12T08:16:24.805Z,96830.41
2022-12-12T08:18:57.720Z,96832.56
2022-12-12T08:21:27.236Z,96831.59
2022-12-12T08:24:00.031Z,96833.63
2022-12-12T08:26:28.781Z,96832.97
2022-12-12T08:28:57.536Z,96846.28
2022-12-12T08:31:26.221Z,96834.69
2022-12-12T08:33:53.878Z,96838.59
2022-12-12T08:36:40.834Z,96834.19
2022-12-12T08:39:12.678Z,96835.06
2022-12-12T08:41:46.487Z,96835.66
2022-12-12T08:44:16.152Z,96837.38
2022-12-12T08:46:43.783Z,96837.16
2022-12-12T08:49:12.346Z,96838.81
2022-12-12T08:51:41.568Z,96841.50
2022-12-12T08:54:12.760Z,96843.31
2022-12-12T08:56:40.941Z,96836.03
2022-12-12T08:59:08.187Z,96838.53
2022-12-12T09:01:36.358Z,96844.84
2022-12-12T09:04:04.037Z,96841.66
2022-12-12T09:06:31.614Z,96842.09
2022-12-12T09:08:59.147Z,96848.75
2022-12-12T09:11:27.341Z,96853.28
2022-12-12T09:13:54.761Z,96847.72
2022-12-12T09:16:23.514Z,96847.25
2022-12-12T09:18:50.797Z,96855.47
2022-12-12T09:21:19.317Z,96852.25
2022-12-12T09:23:46.604Z,96849.75
2022-12-12T09:26:14.141Z,96845.00
2022-12-12T09:28:41.546Z,96854.19
2022-12-12T09:31:11.596Z,96844.25
2022-12-12T09:33:39.967Z,96841.44
2022-12-12T09:36:09.952Z,96843.19
2022-12-12T09:38:37.647Z,96833.66
2022-12-12T09:41:15.787Z,96846.94
2022-12-12T09:44:11.463Z,96838.94
2022-12-12T09:46:50.785Z,96835.75
2022-12-12T09:49:43.449Z,96841.81
2022-12-12T09:52:18.777Z,96835.75
2022-12-12T09:54:46.467Z,96835.38
2022-12-12T09:57:45.821Z,96844.06
2022-12-12T10:00:16.859Z,96847.03
2022-12-12T10:03:09.745Z,96850.41
2022-12-12T10:09:30.140Z,96845.91
2022-12-12T10:12:04.930Z,96845.06
2022-12-12T10:14:50.950Z,96849.06
2022-12-12T10:17:32.563Z,96846.19
2022-12-12T10:20:05.032Z,96845.53
2022-12-12T10:22:40.548Z,96845.06
2022-12-12T10:25:25.614Z,96841.44
2022-12-12T10:28:11.113Z,96841.06
2022-12-12T10:31:09.838Z,96841.97
2022-12-12T10:33:37.007Z,96845.44
2022-12-12T10:36:26.088Z,96846.44
2022-12-12T10:39:33.272Z,96844.63
2022-12-12T10:42:25.298Z,96839.53
2022-12-12T10:45:26.081Z,96842.44
2022-12-12T10:47:53.968Z,96848.03
2022-12-12T10:50:40.813Z,96833.19
2022-12-12T10:53:11.166Z,96827.16
2022-12-12T10:55:51.753Z,96834.44
2022-12-12T10:58:20.055Z,96843.16
2022-12-12T11:00:50.019Z,96832.91
2022-12-12T11:03:32.684Z,96838.31
2022-12-12T11:06:07.707Z,96837.66
2022-12-12T11:08:37.137Z,96834.56
2022-12-12T11:11:10.345Z,96829.41
2022-12-12T11:13:50.418Z,96828.06
2022-12-12T11:16:22.998Z,96823.53
2022-12-12T11:19:18.308Z,96825.81
2022-12-12T11:21:47.560Z,96828.09
2022-12-12T11:24:20.096Z,96816.44
2022-12-12T11:27:07.931Z,96824.16
2022-12-12T11:29:48.315Z,96829.88
2022-12-12T11:32:22.755Z,96818.47
2022-12-12T11:35:36.313Z,96828.75
2022-12-12T11:38:22.571Z,96832.75
2022-12-12T11:41:00.140Z,96824.28
2022-12-12T11:43:50.223Z,96824.97
2022-12-12T11:46:24.036Z,96833.34
2022-12-12T11:48:54.297Z,96830.03
2022-12-12T11:51:35.369Z,96838.94
2022-12-12T11:54:22.954Z,96834.03
2022-12-12T11:57:06.026Z,96832.22
2022-12-12T12:00:03.853Z,96847.84
2022-12-12T12:03:13.372Z,96843.25
2022-12-12T12:06:01.887Z,96843.16
2022-12-12T12:09:00.184Z,96844.66
2022-12-12T12:11:33.632Z,96845.44
2022-12-12T12:14:43.131Z,96859.03
2022-12-12T12:17:44.385Z,96853.91
2022-12-12T12:20:44.066Z,96845.44
2022-12-12T12:23:50.692Z,96856.63
2022-12-12T12:26:43.051Z,96861.81
2022-12-12T12:29:25.316Z,96856.69
2022-12-12T12:32:16.967Z,96864.19
2022-12-12T12:35:26.444Z,96861.44
2022-12-12T12:37:59.675Z,96852.13
2022-12-12T12:40:44.850Z,96854.41
2022-12-12T12:43:34.384Z,96854.72
2022-12-12T12:46:46.489Z,96853.81
2022-12-12T12:49:35.076Z,96864.78
2022-12-12T12:52:36.752Z,96856.53
2022-12-12T12:55:24.476Z,96865.16
2022-12-12T12:57:53.071Z,96856.69
2022-12-12T13:00:26.197Z,96864.19
2022-12-12T13:03:18.636Z,96867.03
2022-12-12T13:05:55.006Z,96875.50
2022-12-12T13:08:36.385Z,96867.03
2022-12-12T13:11:14.801Z,96867.50
2022-12-12T13:13:48.977Z,96869.03
2022-12-12T13:16:32.910Z,96877.94
2022-12-12T13:19:16.551Z,96873.63
2022-12-12T13:21:56.825Z,96869.22
2022-12-12T13:24:42.649Z,96873.25
2022-12-12T13:27:27.170Z,96884.03
2022-12-12T13:30:07.137Z,96876.63
2022-12-12T13:32:52.911Z,96882.78
2022-12-12T13:35:31.918Z,96890.69
2022-12-12T13:38:00.895Z,96894.16
2022-12-12T13:40:41.557Z,96893.00
2022-12-12T13:43:41.767Z,96902.13
2022-12-12T13:46:24.781Z,96901.97
2022-12-12T13:49:07.654Z,96899.06
2022-12-12T13:51:43.494Z,96905.19
2022-12-12T13:54:14.498Z,96915.69
2022-12-12T13:56:57.205Z,96916.59
2022-12-12T13:59:27.517Z,96916.88
2022-12-12T14:02:55.329Z,96923.81
2022-12-12T14:05:42.562Z,96918.88
2022-12-12T14:08:13.768Z,96924.84
2022-12-12T14:10:50.347Z,96923.94
2022-12-12T14:13:26.175Z,96932.56
2022-12-12T14:16:28.242Z,96936.47
2022-12-12T14:19:18.155Z,96933.13
2022-12-12T14:21:48.502Z,96934.66
2022-12-12T14:24:33.901Z,96941.78
2022-12-12T14:27:04.654Z,96939.06
2022-12-12T14:29:41.681Z,96944.84
2022-12-12T14:32:12.048Z,96943.22
2022-12-12T14:35:06.877Z,96944.44
2022-12-12T14:37:59.139Z,96945.22
2022-12-12T14:40:40.360Z,96942.72
2022-12-12T14:43:21.994Z,96934.94
2022-12-12T14:45:49.873Z,96938.28
2022-12-12T14:48:46.659Z,96942.44
2022-12-12T14:51:29.513Z,96942.56
2022-12-12T14:54:00.447Z,96944.00
2022-12-12T14:56:40.033Z,96948.13
2022-12-12T14:59:27.502Z,96946.25
2022-12-12T15:02:33.592Z,96958.47
2022-12-12T15:05:07.608Z,96954.66
2022-12-12T15:07:39.001Z,96958.97
2022-12-12T15:10:30.748Z,96956.44
2022-12-12T15:12:58.039Z,96960.72
2022-12-12T15:15:32.055Z,96962.75
2022-12-12T15:18:01.690Z,96968.06
2022-12-12T15:20:32.612Z,96964.91
2022-12-12T15:23:07.209Z,96975.13
2022-12-12T15:25:52.773Z,96977.53
2022-12-12T15:28:24.912Z,96973.38
2022-12-12T15:30:55.231Z,96975.66
2022-12-12T15:33:27.992Z,96977.94
2022-12-12T15:36:05.436Z,96974.22
2022-12-12T15:38:34.613Z,96975.66
2022-12-12T15:41:12.768Z,96979.19
2022-12-12T15:43:43.185Z,96980.66
2022-12-12T15:46:15.723Z,96990.00
2022-12-12T15:48:49.630Z,96982.66
2022-12-12T15:51:24.616Z,96985.97
2022-12-12T15:53:55.496Z,96990.22
2022-12-12T15:56:27.800Z,96983.38
2022-12-12T15:59:06.920Z,96994.59
2022-12-12T16:01:34.565Z,96985.97
2022-12-12T16:04:22.716Z,96998.47
2022-12-12T16:06:50.464Z,97000.56
2022-12-12T16:09:26.384Z,96995.72
2022-12-12T16:11:59.230Z,97009.91
2022-12-12T16:14:42.113Z,97001.81
2022-12-12T16:17:24.510Z,97010.28
2022-12-12T16:20:13.971Z,97002.22
2022-12-12T16:22:49.177Z,97014.94
2022-12-12T16:25:25.848Z,97007.16
2022-12-12T16:28:07.352Z,97015.94
2022-12-12T16:30:37.234Z,97011.22
2022-12-12T16:33:43.442Z,97015.94
2022-12-12T16:36:16.862Z,97014.78
2022-12-12T16:38:44.599Z,97013.78
2022-12-12T16:41:16.990Z,97026.69
2022-12-12T16:43:45.088Z,97016.50
2022-12-12T16:46:25.574Z,97030.66
2022-12-12T16:48:53.635Z,97034.13
2022-12-12T16:51:28.584Z,97040.25
2022-12-12T16:53:56.490Z,97038.38
2022-12-12T16:56:24.899Z,97037.47
2022-12-12T16:58:53.456Z,97042.31
2022-12-12T17:01:21.141Z,97042.25
2022-12-12T17:03:48.816Z,97051.34
2022-12-12T17:06:16.095Z,97045.56
2022-12-12T17:08:43.612Z,97047.19
2022-12-12T17:11:12.835Z,97047.03
2022-12-12T17:13:51.094Z,97053.00
2022-12-12T17:16:22.756Z,97059.97
2022-12-12T17:18:53.455Z,97062.53
2022-12-12T17:21:20.735Z,97061.53
2022-12-12T17:23:48.284Z,97063.69
2022-12-12T17:26:15.788Z,97070.44
2022-12-12T17:28:43.281Z,97071.75
2022-12-12T17:31:10.554Z,97082.75
2022-12-12T17:33:49.520Z,97080.22
2022-12-12T17:36:18.123Z,97076.28
2022-12-12T17:38:45.687Z,97076.31
2022-12-12T17:41:13.495Z,97085.34
2022-12-12T17:43:42.358Z,97087.16
2022-12-12T17:46:17.116Z,97090.44
2022-12-12T17:48:47.731Z,97085.34
2022-12-12T17:51:23.408Z,97090.63
2022-12-12T17:53:52.835Z,97088.50
2022-12-12T17:56:25.331Z,97086.34
2022-12-12T17:58:54.692Z,97093.69
2022-12-12T18:01:29.249Z,97104.81
2022-12-12T18:03:58.473Z,97104.66
2022-12-12T18:06:27.539Z,97112.03
2022-12-12T18:08:55.361Z,97107.03
2022-12-12T18:11:27.458Z,97106.31
2022-12-12T18:13:57.914Z,97103.13
2022-12-12T18:16:25.613Z,97105.56
2022-12-12T18:18:55.099Z,97103.22
2022-12-12T18:21:59.683Z,97110.44
2022-12-12T18:24:17.729Z,97110.75
2022-12-12T18:26:45.232Z,97116.19
2022-12-12T18:29:13.671Z,97117.50
2022-12-12T18:31:41.235Z,97115.06
2022-12-12T18:34:08.969Z,97129.22
2022-12-12T18:36:36.441Z,97135.88
2022-12-12T18:39:07.062Z,97120.94
2022-12-12T18:41:36.834Z,97130.25
2022-12-12T18:44:07.950Z,97126.72
2022-12-12T18:46:42.355Z,97140.19
2022-12-12T18:49:15.188Z,97141.59
2022-12-12T18:51:44.699Z,97145.38
2022-12-12T18:54:15.751Z,97156.31
2022-12-12T18:56:45.977Z,97147.72
2022-12-12T18:59:15.170Z,97150.31
2022-12-12T19:01:42.723Z,97169.06
2022-12-12T19:04:13.448Z,97168.28
2022-12-12T19:06:43.528Z,97168.91
2022-12-12T19:09:17.800Z,97183.31
2022-12-12T19:11:47.206Z,97187.94
2022-12-12T19:14:16.866Z,97174.41
2022-12-12T19:16:45.333Z,97185.66
2022-12-12T19:19:13.758Z,97189.59
2022-12-12T19:21:42.835Z,97191.69
2022-12-12T19:24:12.621Z,97186.28
2022-12-12T19:26:43.905Z,97191.34
2022-12-12T19:29:19.061Z,97191.34
2022-12-12T19:31:47.382Z,97191.03
2022-12-12T19:34:16.818Z,97194.94
2022-12-12T19:36:45.509Z,97199.72
2022-12-12T19:39:13.646Z,97201.16
2022-12-12T19:41:42.095Z,97207.19
2022-12-12T19:44:12.710Z,97209.97
2022-12-12T19:46:43.558Z,97219.13
2022-12-12T19:49:16.226Z,97219.41
2022-12-12T19:51:45.747Z,97222.59
2022-12-12T19:54:17.945Z,97224.72
2022-12-12T19:56:46.767Z,97224.97
2022-12-12T19:59:17.372Z,97231.28
2022-12-12T20:01:45.921Z,97222.66
2022-12-12T20:04:21.735Z,97237.16
2022-12-12T20:06:50.504Z,97238.94
2022-12-12T20:09:30.003Z,97241.63
2022-12-12T20:12:00.664Z,97242.28
2022-12-12T20:14:34.711Z,97236.91
2022-12-12T20:17:05.496Z,97252.31
2022-12-12T20:19:33.203Z,97257.47
2022-12-12T20:22:02.117Z,97252.41
2022-12-12T20:24:32.261Z,97251.31
2022-12-12T20:27:00.350Z,97261.44
2022-12-12T20:29:28.342Z,97248.75
2022-12-12T20:31:55.728Z,97259.03
2022-12-12T20:34:25.025Z,97267.72
2022-12-12T20:36:55.154Z,97261.81
2022-12-12T20:39:25.166Z,97270.81
2022-12-12T20:41:53.846Z,97274.09
2022-12-12T20:44:24.176Z,97267.75
2022-12-12T20:46:51.837Z,97269.81
2022-12-12T20:49:24.058Z,97280.41
2022-12-12T20:51:56.497Z,97273.78
2022-12-12T20:54:27.402Z,97282.50
2022-12-12T20:56:58.448Z,97286.56
2022-12-12T20:59:26.930Z,97298.84
2022-12-12T21:01:54.466Z,97304.53
2022-12-12T21:04:22.765Z,97298.59
2022-12-12T21:06:51.639Z,97297.94
2022-12-12T21:09:25.871Z,97305.50
2022-12-12T21:11:58.703Z,97303.97
2022-12-12T21:14:30.864Z,97313.03
2022-12-12T21:16:58.233Z,97315.13
2022-12-12T21:19:25.778Z,97314.94
2022-12-12T21:21:54.310Z,97326.34
2022-12-12T21:24:22.866Z,97324.63
2022-12-12T21:26:50.731Z,97321.78
2022-12-12T21:29:18.502Z,97329.69
2022-12-12T21:31:51.611Z,97327.41
2022-12-12T21:34:23.571Z,97331.47
2022-12-12T21:36:53.968Z,97342.44
2022-12-12T21:39:26.741Z,97339.19
2022-12-12T21:41:55.330Z,97338.81
2022-12-12T21:44:22.983Z,97349.97
2022-12-12T21:46:50.504Z,97358.97
2022-12-12T21:49:28.036Z,97343.88
2022-12-12T21:52:02.701Z,97351.56
2022-12-12T21:54:30.938Z,97362.59
2022-12-12T21:57:02.705Z,97355.91
2022-12-12T21:59:30.702Z,97360.28
2022-12-12T22:02:00.521Z,97349.31
2022-12-12T22:04:28.662Z,97349.31
2022-12-12T22:06:57.405Z,97361.56
2022-12-12T22:09:26.458Z,97362.66
2022-12-12T22:12:03.240Z,97369.63
2022-12-12T22:14:32.958Z,97367.16
2022-12-12T22:17:00.971Z,97373.09
2022-12-12T22:19:28.571Z,97374.31
2022-12-12T22:21:55.812Z,97368.41
2022-12-12T22:24:23.378Z,97376.31
2022-12-12T22:26:50.848Z,97376.41
2022-12-12T22:29:20.276Z,97373.75
2022-12-12T22:31:50.302Z,97369.44
2022-12-12T22:34:23.481Z,97380.41
2022-12-12T22:36:52.401Z,97376.81
2022-12-12T22:39:24.643Z,97380.59
2022-12-12T22:41:52.484Z,97383.22
2022-12-12T22:44:22.884Z,97382.31
2022-12-12T22:46:52.981Z,97390.06
2022-12-12T22:49:25.895Z,97387.31
2022-12-12T22:51:56.370Z,97400.00
2022-12-12T22:54:25.130Z,97410.78
2022-12-12T22:56:52.346Z,97413.69
2022-12-12T22:59:19.962Z,97399.34
2022-12-12T23:01:47.171Z,97407.97
2022-12-12T23:04:15.354Z,97417.81
2022-12-12T23:06:44.935Z,97412.75
2022-12-12T23:09:18.311Z,97409.72
2022-12-12T23:11:46.349Z,97421.75
2022-12-12T23:14:19.518Z,97415.72
2022-12-12T23:16:47.430Z,97416.31
2022-12-12T23:19:20.083Z,97416.66
2022-12-12T23:21:47.939Z,97419.38
2022-12-12T23:24:15.772Z,97411.84
2022-12-12T23:26:43.491Z,97404.19
2022-12-12T23:29:16.952Z,97405.59
2022-12-12T23:31:44.929Z,97409.97
2022-12-12T23:34:30.905Z,97416.63
2022-12-12T23:36:58.741Z,97418.13
2022-12-12T23:39:27.178Z,97418.63
2022-12-12T23:41:55.045Z,97422.22
2022-12-12T23:44:24.165Z,97411.94
2022-12-12T23:46:51.838Z,97413.94
2022-12-12T23:49:25.878Z,97412.97
2022-12-12T23:51:59.411Z,97414.72
2022-12-12T23:54:32.350Z,97411.09
2022-12-12T23:57:00.249Z,97421.63
2022-12-12T23:59:28.483Z,97416.38
